Time;durP1;ratioP1;P1;durP2;ratioP2;P2;SDS_P1;SDS_P2;PMS_P1;PMS_P2;Temp;Humidity;BMP_temperature;BMP_pressure;BME280_temperature;BME280_humidity;BME280_pressure;Samples;Min_cycle;Max_cycle;Signal;HPM_P1;HPM_P2
2024/04/22 00:01:01;;;;;;;0.60;0.60;;;7.80;99.90;;;;;;11332604;26;20316;-73
2024/04/22 00:06:08;;;;;;;0.60;0.60;;;7.80;99.90;;;;;;11332930;26;20237;-75
2024/04/22 00:11:12;;;;;;;0.70;0.70;;;7.80;99.90;;;;;;11333316;26;20355;-76
2024/04/22 00:16:16;;;;;;;0.53;0.53;;;7.80;99.90;;;;;;11331637;26;20691;-76
2024/04/22 00:21:22;;;;;;;0.63;0.63;;;7.70;99.90;;;;;;11331792;26;20309;-75
2024/04/22 00:26:26;;;;;;;0.50;0.50;;;7.80;99.90;;;;;;11331754;26;20255;-75
2024/04/22 00:31:30;;;;;;;0.60;0.60;;;7.80;99.90;;;;;;11330233;26;20627;-74
2024/04/22 00:36:37;;;;;;;0.60;0.60;;;7.80;99.90;;;;;;11330950;26;20241;-76
2024/04/22 00:41:41;;;;;;;0.60;0.60;;;7.70;99.90;;;;;;11331777;26;20232;-75
2024/04/22 00:46:46;;;;;;;0.60;0.60;;;7.70;99.90;;;;;;11367865;25;20240;-75
2024/04/22 00:51:53;;;;;;;0.60;0.60;;;7.80;99.90;;;;;;11406839;25;20235;-76
2024/04/22 00:56:57;;;;;;;0.60;0.60;;;7.80;99.90;;;;;;11402924;25;20271;-75
2024/04/22 01:02:01;;;;;;;0.60;0.60;;;7.70;99.90;;;;;;11398385;26;20596;-79
2024/04/22 01:07:08;;;;;;;0.60;0.60;;;7.60;99.90;;;;;;11405524;25;20327;-75
2024/04/22 01:12:13;;;;;;;0.60;0.60;;;7.60;99.90;;;;;;11406957;25;20322;-76
2024/04/22 01:17:17;;;;;;;0.60;0.60;;;7.70;99.90;;;;;;11404926;26;20232;-74
2024/04/22 01:22:23;;;;;;;0.70;0.70;;;7.70;99.90;;;;;;11405988;25;20651;-76
2024/04/22 01:27:29;;;;;;;0.70;0.70;;;7.70;99.90;;;;;;11358292;26;20274;-76
2024/04/22 01:32:33;;;;;;;0.60;0.60;;;7.60;99.90;;;;;;11382276;25;20737;-76
2024/04/22 01:37:40;;;;;;;0.67;0.67;;;7.60;99.90;;;;;;11465897;25;20636;-76
2024/04/22 01:42:44;;;;;;;0.70;0.70;;;7.60;99.90;;;;;;11388333;25;20740;-75
2024/04/22 01:47:48;;;;;;;0.60;0.60;;;7.60;99.90;;;;;;11472297;25;20774;-76
2024/04/22 01:52:55;;;;;;;0.90;0.90;;;7.50;99.90;;;;;;11452993;25;20264;-76
2024/04/22 01:57:59;;;;;;;0.67;0.67;;;7.50;99.90;;;;;;11394828;25;20826;-76
2024/04/22 02:03:03;;;;;;;0.60;0.60;;;7.50;99.90;;;;;;11419110;25;20229;-76
2024/04/22 02:08:10;;;;;;;0.80;0.80;;;7.50;99.90;;;;;;11412410;25;20254;-76
2024/04/22 02:13:14;;;;;;;0.87;0.87;;;7.50;99.90;;;;;;11441752;25;20234;-76
2024/04/22 02:18:18;;;;;;;0.90;0.90;;;7.50;99.90;;;;;;11440272;25;20228;-75
2024/04/22 02:23:25;;;;;;;0.90;0.90;;;7.50;99.90;;;;;;11444711;25;20729;-75
2024/04/22 02:28:29;;;;;;;0.90;0.90;;;7.40;99.90;;;;;;11370013;25;20323;-77
2024/04/22 02:33:34;;;;;;;0.70;0.70;;;7.50;99.90;;;;;;11372368;25;20225;-76
2024/04/22 02:38:40;;;;;;;1.10;1.10;;;7.40;99.90;;;;;;11387407;25;20310;-76
2024/04/22 02:43:46;;;;;;;0.97;0.97;;;7.40;99.90;;;;;;11410757;26;20263;-75
2024/04/22 02:48:50;;;;;;;1.00;1.00;;;7.40;99.90;;;;;;11377432;26;20334;-75
2024/04/22 02:53:57;;;;;;;1.00;1.00;;;7.40;99.90;;;;;;11407382;25;20236;-77
2024/04/22 02:59:01;;;;;;;1.00;1.00;;;7.40;99.90;;;;;;11401444;25;20308;-77
2024/04/22 03:04:05;;;;;;;0.90;0.90;;;7.40;99.90;;;;;;11410552;25;20698;-76
2024/04/22 03:09:12;;;;;;;1.20;1.20;;;7.40;99.90;;;;;;11409200;25;20340;-76
2024/04/22 03:14:16;;;;;;;1.00;1.00;;;7.40;99.90;;;;;;11409700;25;20276;-76
2024/04/22 03:19:20;;;;;;;1.30;1.30;;;7.40;99.90;;;;;;11409007;26;20721;-76
2024/04/22 03:24:26;;;;;;;1.40;1.40;;;7.40;99.90;;;;;;11382654;25;20273;-77
2024/04/22 03:29:30;;;;;;;1.10;1.10;;;7.40;99.90;;;;;;11401638;25;20261;-76
2024/04/22 03:34:34;;;;;;;1.30;1.30;;;7.30;99.90;;;;;;11440539;25;20241;-76
2024/04/22 03:39:41;;;;;;;1.20;1.20;;;7.30;99.90;;;;;;11400290;25;20234;-76
2024/04/22 03:44:45;;;;;;;1.10;1.10;;;7.30;99.90;;;;;;11437038;25;20340;-72
2024/04/22 03:49:56;;;;;;;1.00;1.00;;;7.20;99.90;;;;;;11341865;25;20237;-73
2024/04/22 03:55:03;;;;;;;1.10;1.10;;;7.20;99.90;;;;;;11374782;25;20244;-77
2024/04/22 04:00:08;;;;;;;1.20;1.20;;;7.20;99.90;;;;;;11369041;25;20264;-74
2024/04/22 04:05:15;;;;;;;0.80;0.80;;;7.20;99.90;;;;;;11380479;25;20228;-75
2024/04/22 04:10:22;;;;;;;1.00;1.00;;;7.10;99.90;;;;;;11374618;25;20829;-75
2024/04/22 04:15:26;;;;;;;1.00;1.00;;;7.00;99.90;;;;;;11386118;25;20244;-77
2024/04/22 04:20:30;;;;;;;1.20;1.20;;;6.90;99.90;;;;;;11408134;25;20228;-76
2024/04/22 04:25:37;;;;;;;1.30;1.30;;;6.80;99.90;;;;;;11438876;25;20676;-76
2024/04/22 04:30:41;;;;;;;1.17;1.17;;;6.70;99.90;;;;;;11461785;25;20236;-76
2024/04/22 04:35:45;;;;;;;1.23;1.23;;;6.70;99.90;;;;;;11431633;25;20759;-75
2024/04/22 04:40:51;;;;;;;0.90;0.90;;;6.60;99.90;;;;;;11464354;25;20239;-76
2024/04/22 04:45:56;;;;;;;1.10;1.10;;;6.50;99.90;;;;;;11433225;25;20238;-76
2024/04/22 04:51:00;;;;;;;0.90;0.90;;;6.50;99.90;;;;;;11441006;25;20235;-77
2024/04/22 04:56:07;;;;;;;1.00;1.00;;;6.40;99.90;;;;;;11405408;26;20274;-76
2024/04/22 05:01:11;;;;;;;0.80;0.80;;;6.40;99.90;;;;;;11397224;25;20271;-75
2024/04/22 05:06:15;;;;;;;1.00;1.00;;;;;;;;;;11385488;25;20267;-76
2024/04/22 05:11:24;;;;;;;1.00;1.00;;;;;;;;;;11374048;25;20753;-75
2024/04/22 05:16:28;;;;;;;0.80;0.80;;;;;;;;;;11415145;25;20236;-76
2024/04/22 05:21:32;;;;;;;0.80;0.80;;;;;;;;;;11404921;25;20239;-75
2024/04/22 05:26:39;;;;;;;0.90;0.90;;;;;;;;;;11419727;25;20342;-75
2024/04/22 05:31:44;;;;;;;0.60;0.60;;;;;;;;;;11437356;25;20232;-76
2024/04/22 05:36:48;;;;;;;0.80;0.80;;;;;;;;;;11376675;25;21098;-75
2024/04/22 05:41:55;;;;;;;0.90;0.90;;;;;;;;;;11403540;26;20240;-76
2024/04/22 05:46:59;;;;;;;0.90;0.90;;;;;;;;;;11403887;25;20657;-74
2024/04/22 05:52:03;;;;;;;0.80;0.80;;;;;;;;;;11407562;25;20850;-72
2024/04/22 05:57:10;;;;;;;0.60;0.60;;;;;;;;;;11413349;25;20682;-75
2024/04/22 06:02:15;;;;;;;0.60;0.60;;;;;;;;;;11459553;25;20228;-75
2024/04/22 06:07:20;;;;;;;0.40;0.40;;;;;;;;;;11370571;25;20237;-75
2024/04/22 06:12:27;;;;;;;0.87;0.87;;;;;;;;;;11395032;25;20234;-76
2024/04/22 06:17:31;;;;;;;0.83;0.83;;;;;;;;;;11377148;25;20225;-75
2024/04/22 06:22:38;;;;;;;0.60;0.60;;;;;;;;;;11399763;25;20587;-75
2024/04/22 06:27:45;;;;;;;0.87;0.87;;;;;;;;;;11407734;25;20330;-76
2024/04/22 06:32:51;;;;;;;0.70;0.70;;;;;;;;;;11463119;25;20323;-75
2024/04/22 06:37:55;;;;;;;0.90;0.90;;;;;;;;;;11413347;25;21062;-76
2024/04/22 06:43:02;;;;;;;0.77;0.77;;;;;;;;;;11464534;25;20228;-76
2024/04/22 06:48:07;;;;;;;0.70;0.70;;;;;;;;;;11336029;26;20240;-78
2024/04/22 06:53:11;;;;;;;0.87;0.87;;;;;;;;;;11407377;25;20228;-77
2024/04/22 06:58:18;;;;;;;0.20;0.20;;;;;;;;;;11311401;25;20264;-76
2024/04/22 07:03:22;;;;;;;0.90;0.90;;;;;;;;;;11366728;26;20313;-77
2024/04/22 07:08:27;;;;;;;0.70;0.70;;;;;;;;;;11409359;25;20244;-78
2024/04/22 07:13:34;;;;;;;0.60;0.60;;;;;;;;;;11399312;26;20228;-78
2024/04/22 07:18:38;;;;;;;0.60;0.60;;;;;;;;;;11407000;25;20248;-77
2024/04/22 07:23:42;;;;;;;0.40;0.40;;;;;;;;;;11383136;25;20235;-76
2024/04/22 07:28:51;;;;;;;0.80;0.80;;;;;;;;;;11341402;25;20351;-79
2024/04/22 07:33:55;;;;;;;0.60;0.60;;;;;;;;;;11361940;25;20566;-77
2024/04/22 07:39:02;;;;;;;0.60;0.60;;;;;;;;;;11492728;25;20235;-76
2024/04/22 07:44:09;;;;;;;0.60;0.60;;;;;;;;;;11361400;25;20308;-78
2024/04/22 07:49:13;;;;;;;0.60;0.60;;;9.00;99.90;;;;;;11408564;25;20232;-76
2024/04/22 07:54:18;;;;;;;0.70;0.70;;;9.20;99.90;;;;;;11374753;25;20265;-78
2024/04/22 07:59:25;;;;;;;0.60;0.60;;;9.30;99.90;;;;;;11500549;25;20304;-79
2024/04/22 08:04:30;;;;;;;0.60;0.60;;;9.40;99.90;;;;;;11402081;25;20227;-75
2024/04/22 08:09:34;;;;;;;0.67;0.67;;;9.60;99.90;;;;;;11499350;25;20721;-75
2024/04/22 08:14:41;;;;;;;0.50;0.50;;;9.70;99.90;;;;;;11398897;25;20312;-76
2024/04/22 08:19:46;;;;;;;0.40;0.40;;;;;;;;;;11467633;25;20259;-76
2024/04/22 08:24:51;;;;;;;0.60;0.60;;;;;;;;;;11412584;25;20585;-75
2024/04/22 08:29:58;;;;;;;0.60;0.60;;;;;;;;;;11432071;25;20270;-75
2024/04/22 08:35:03;;;;;;;0.40;0.40;;;;;;;;;;11375847;25;20576;-75
2024/04/22 08:40:08;;;;;;;0.50;0.50;;;;;;;;;;11406888;25;20240;-76
2024/04/22 08:45:15;;;;;;;0.57;0.57;;;;;;;;;;11405987;25;20334;-75
2024/04/22 08:50:20;;;;;;;0.50;0.50;;;;;;;;;;11407245;25;20322;-76
2024/04/22 08:55:24;;;;;;;0.50;0.50;;;;;;;;;;11386198;25;20720;-75
2024/04/22 09:00:31;;;;;;;0.60;0.60;;;;;;;;;;11450591;25;20263;-74
2024/04/22 09:05:36;;;;;;;0.50;0.50;;;;;;;;;;11405964;25;20228;-74
2024/04/22 09:10:40;;;;;;;0.50;0.50;;;;;;;;;;11406156;26;20315;-76
2024/04/22 09:15:47;;;;;;;0.10;0.10;;;;;;;;;;11405905;26;20232;-75
2024/04/22 09:20:53;;;;;;;0.70;0.70;;;;;;;;;;11405496;26;20646;-74
2024/04/22 09:25:57;;;;;;;0.70;0.70;;;;;;;;;;11383235;25;20804;-74
2024/04/22 09:31:05;;;;;;;0.60;0.60;;;;;;;;;;11495530;25;20641;-75
2024/04/22 09:36:13;;;;;;;0.50;0.50;;;;;;;;;;11373369;25;20700;-71
2024/04/22 09:41:17;;;;;;;0.60;0.60;;;;;;;;;;11447882;25;21124;-75
2024/04/22 09:46:24;;;;;;;0.20;0.20;;;;;;;;;;11340272;26;20239;-76
2024/04/22 09:51:29;;;;;;;0.60;0.60;;;;;;;;;;11405540;25;20235;-74
2024/04/22 09:56:36;;;;;;;0.60;0.60;;;;;;;;;;11366250;25;20235;-73
2024/04/22 10:01:43;;;;;;;0.60;0.60;;;;;;;;;;11319732;26;20331;-75
2024/04/22 10:06:48;;;;;;;0.57;0.57;;;;;;;;;;11377922;25;20330;-75
2024/04/22 10:11:52;;;;;;;0.63;0.63;;;;;;;;;;11426540;25;20301;-75
2024/04/22 10:17:00;;;;;;;0.60;0.60;;;;;;;;;;11372742;25;20241;-76
2024/04/22 10:22:04;;;;;;;0.60;0.60;;;;;;;;;;11392607;25;20266;-75
2024/04/22 10:27:09;;;;;;;0.60;0.60;;;;;;;;;;11360899;25;20278;-75
2024/04/22 10:32:16;;;;;;;0.60;0.60;;;;;;;;;;11398146;25;20229;-75
2024/04/22 10:42:30;;;;;;;0.50;0.50;;;;;;;;;;11468625;25;20531;-75
2024/04/22 10:47:35;;;;;;;0.90;0.90;;;10.50;63.10;;;;;;11455466;25;20267;-74
2024/04/22 10:52:40;;;;;;;0.67;0.67;;;10.70;60.60;;;;;;11402777;25;20231;-75
2024/04/22 10:57:47;;;;;;;0.80;0.80;;;10.80;65.20;;;;;;11386599;25;20244;-74
2024/04/22 11:02:51;;;;;;;0.53;0.53;;;10.70;72.50;;;;;;11404017;25;20239;-75
2024/04/22 11:07:56;;;;;;;0.70;0.70;;;10.70;68.40;;;;;;11420918;25;20572;-75
2024/04/22 11:13:03;;;;;;;0.73;0.73;;;10.50;70.20;;;;;;11402612;25;20235;-75
2024/04/22 11:18:07;;;;;;;0.90;0.90;;;10.40;67.90;;;;;;11272293;21;20660;-75
2024/04/22 11:23:12;;;;;;;0.80;0.80;;;10.40;71.70;;;;;;11238706;26;20265;-74
2024/04/22 11:28:18;;;;;;;0.90;0.90;;;10.60;69.30;;;;;;11238082;26;20567;-75
2024/04/22 11:33:23;;;;;;;0.50;0.50;;;10.90;68.10;;;;;;11238598;26;20238;-75
2024/04/22 11:38:28;;;;;;;0.80;0.80;;;11.20;64.70;;;;;;11238299;26;20645;-75
2024/04/22 11:43:35;;;;;;;0.50;0.50;;;11.60;62.90;;;;;;11230433;26;20257;-75
2024/04/22 11:48:39;;;;;;;0.50;0.50;;;11.70;63.10;;;;;;11177555;26;20354;-76
2024/04/22 11:53:43;;;;;;;0.20;0.20;;;11.80;61.20;;;;;;11175517;26;20251;-75
2024/04/22 11:58:50;;;;;;;0.53;0.53;;;11.70;59.60;;;;;;11205408;26;20323;-75
2024/04/22 12:03:54;;;;;;;0.80;0.80;;;11.50;61.80;;;;;;11205968;26;20243;-75
2024/04/22 12:08:58;;;;;;;0.80;0.80;;;11.50;61.80;;;;;;11206162;26;20242;-75
2024/04/22 12:14:05;;;;;;;0.60;0.60;;;11.50;60.40;;;;;;11205350;26;20243;-74
2024/04/22 12:19:09;;;;;;;0.70;0.70;;;11.50;64.10;;;;;;11150044;26;20234;-75
2024/04/22 12:24:14;;;;;;;0.70;0.70;;;11.60;61.80;;;;;;11205548;26;20830;-75
2024/04/22 12:29:21;;;;;;;0.47;0.47;;;11.70;62.20;;;;;;11205509;26;20620;-75
2024/04/22 12:34:25;;;;;;;0.60;0.60;;;11.80;58.40;;;;;;11205095;26;20351;-75
2024/04/22 12:39:29;;;;;;;0.50;0.50;;;11.60;58.90;;;;;;11174672;26;20654;-75
2024/04/22 12:44:36;;;;;;;0.67;0.67;;;11.40;59.30;;;;;;11204541;26;20242;-75
2024/04/22 12:55:00;;;;;;;0.33;0.33;;;11.30;62.30;;;;;;11209341;26;20720;-75
2024/04/22 13:00:12;;;;;;;0.50;0.50;;;11.50;62.70;;;;;;11204167;26;20234;-76
2024/04/22 13:05:17;;;;;;;0.70;0.70;;;11.60;63.80;;;;;;11203121;26;20235;-76
2024/04/22 13:10:21;;;;;;;0.50;0.50;;;11.80;61.60;;;;;;11154463;26;20714;-75
2024/04/22 13:15:27;;;;;;;0.60;0.60;;;11.90;63.60;;;;;;11154904;26;20247;-76
2024/04/22 13:20:31;;;;;;;0.70;0.70;;;12.00;60.80;;;;;;11203759;26;20716;-76
2024/04/22 13:25:35;;;;;;;0.53;0.53;;;12.10;59.00;;;;;;11204047;26;20238;-76
2024/04/22 13:30:43;;;;;;;0.60;0.60;;;12.00;59.90;;;;;;11172746;26;20324;-76
2024/04/22 13:35:48;;;;;;;0.80;0.80;;;12.10;60.90;;;;;;11203538;26;20243;-74
2024/04/22 13:40:52;;;;;;;0.80;0.80;;;12.20;58.80;;;;;;11169662;26;20265;-75
2024/04/22 13:45:58;;;;;;;0.80;0.80;;;12.30;59.40;;;;;;11191839;26;20293;-75
2024/04/22 13:51:03;;;;;;;0.70;0.70;;;12.20;61.70;;;;;;11193981;26;20269;-75
2024/04/22 13:56:07;;;;;;;0.60;0.60;;;12.10;60.70;;;;;;11199463;26;20270;-75
2024/04/22 14:01:14;;;;;;;0.60;0.60;;;12.20;62.10;;;;;;11200045;26;20545;-75
2024/04/22 14:06:18;;;;;;;0.50;0.50;;;12.30;61.10;;;;;;11164489;26;20259;-75
2024/04/22 14:11:22;;;;;;;0.60;0.60;;;12.30;60.30;;;;;;11202010;26;20246;-76
2024/04/22 14:16:29;;;;;;;0.50;0.50;;;12.20;59.60;;;;;;11200255;26;20243;-75
2024/04/22 14:21:33;;;;;;;0.50;0.50;;;12.20;56.20;;;;;;11193061;26;20227;-76
2024/04/22 14:26:37;;;;;;;0.60;0.60;;;12.20;58.40;;;;;;11199800;26;20247;-75
2024/04/22 14:31:44;;;;;;;0.70;0.70;;;12.20;58.40;;;;;;11164654;26;20231;-75
2024/04/22 14:36:48;;;;;;;0.27;0.27;;;12.10;57.70;;;;;;11168452;26;20347;-75
2024/04/22 14:41:52;;;;;;;0.60;0.60;;;12.10;58.40;;;;;;11200739;26;20647;-75
2024/04/22 14:46:59;;;;;;;0.80;0.80;;;12.00;58.00;;;;;;11199643;26;20243;-75
2024/04/22 14:52:03;;;;;;;0.73;0.73;;;12.00;57.00;;;;;;11189138;26;20238;-75
2024/04/22 14:57:07;;;;;;;0.80;0.80;;;12.00;56.20;;;;;;11199225;26;20619;-75
2024/04/22 15:02:15;;;;;;;0.60;0.60;;;11.90;56.20;;;;;;11199297;26;20732;-75
2024/04/22 15:07:19;;;;;;;0.50;0.50;;;11.90;56.60;;;;;;11183844;26;20251;-75
2024/04/22 15:12:23;;;;;;;0.60;0.60;;;12.00;58.90;;;;;;11200379;26;20231;-75
2024/04/22 15:17:30;;;;;;;0.60;0.60;;;11.90;62.40;;;;;;11197833;26;20270;-75
2024/04/22 15:22:34;;;;;;;0.60;0.60;;;12.00;64.70;;;;;;11147718;26;20627;-75
2024/04/22 15:27:38;;;;;;;0.70;0.70;;;12.00;66.10;;;;;;11194508;26;20323;-75
2024/04/22 15:32:45;;;;;;;0.60;0.60;;;11.90;66.40;;;;;;11206194;26;20759;-75
2024/04/22 15:37:50;;;;;;;0.57;0.57;;;12.00;65.30;;;;;;11205446;26;20234;-75
2024/04/22 15:42:57;;;;;;;0.60;0.60;;;11.90;62.80;;;;;;11174639;26;20265;-75
2024/04/22 15:48:04;;;;;;;0.60;0.60;;;11.80;62.70;;;;;;11173970;26;20234;-75
2024/04/22 15:53:08;;;;;;;0.70;0.70;;;11.60;62.80;;;;;;11206007;26;20569;-75
2024/04/22 15:58:12;;;;;;;0.60;0.60;;;11.50;61.70;;;;;;11205589;26;20293;-75
2024/04/22 16:03:19;;;;;;;0.47;0.47;;;11.30;63.40;;;;;;11205497;26;20644;-75
2024/04/22 16:08:23;;;;;;;0.70;0.70;;;11.20;64.90;;;;;;11195089;26;20308;-75
2024/04/22 16:13:27;;;;;;;0.50;0.50;;;11.20;63.20;;;;;;11204227;26;20235;-75
2024/04/22 16:18:34;;;;;;;0.50;0.50;;;11.20;62.70;;;;;;11202411;26;20251;-75
2024/04/22 16:23:38;;;;;;;0.50;0.50;;;11.20;62.00;;;;;;11205502;26;20234;-75
2024/04/22 16:28:42;;;;;;;0.60;0.60;;;11.20;63.10;;;;;;11205262;26;20231;-75
2024/04/22 16:33:49;;;;;;;0.50;0.50;;;11.20;62.60;;;;;;11205055;26;20346;-75
2024/04/22 16:38:54;;;;;;;0.50;0.50;;;11.20;61.40;;;;;;11164195;26;20324;-75
2024/04/22 16:43:58;;;;;;;0.60;0.60;;;11.20;62.40;;;;;;11204478;26;20235;-75
2024/04/22 16:49:05;;;;;;;0.60;0.60;;;11.10;64.80;;;;;;11203635;26;20239;-75
2024/04/22 16:54:09;;;;;;;0.60;0.60;;;10.90;66.60;;;;;;11204458;26;20675;-74
2024/04/22 16:59:13;;;;;;;0.30;0.30;;;10.80;67.70;;;;;;11189623;26;20234;-75
2024/04/22 17:04:20;;;;;;;0.70;0.70;;;10.80;68.40;;;;;;11186752;26;20235;-75
2024/04/22 17:09:24;;;;;;;0.40;0.40;;;10.60;69.80;;;;;;11180549;26;20243;-74
2024/04/22 17:14:46;;;;;;;0.57;0.57;;;10.50;71.00;;;;;;11155531;26;20250;-74
2024/04/22 17:19:53;;;;;;;0.50;0.50;;;10.40;71.90;;;;;;11201986;26;20327;-74
2024/04/22 17:24:57;;;;;;;0.53;0.53;;;10.30;71.60;;;;;;11202912;26;20239;-74
2024/04/22 17:30:01;;;;;;;0.60;0.60;;;10.30;73.20;;;;;;11199462;26;20230;-74
2024/04/22 17:35:09;;;;;;;0.57;0.57;;;10.30;72.10;;;;;;11201782;26;20243;-75
2024/04/22 17:40:13;;;;;;;0.60;0.60;;;10.20;68.80;;;;;;11201105;26;20289;-74
2024/04/22 17:45:17;;;;;;;0.60;0.60;;;10.10;69.60;;;;;;11193553;26;20243;-76
2024/04/22 17:50:24;;;;;;;0.80;0.80;;;10.10;68.50;;;;;;11197971;26;20309;-77
2024/04/22 17:55:29;;;;;;;0.77;0.77;;;10.00;68.70;;;;;;11200396;26;20242;-76
2024/04/22 18:00:34;;;;;;;0.60;0.60;;;9.90;70.50;;;;;;11200095;26;20829;-76
2024/04/22 18:05:41;;;;;;;0.70;0.70;;;9.90;69.60;;;;;;11201721;26;20347;-76
2024/04/22 18:10:48;;;;;;;0.53;0.53;;;9.90;71.80;;;;;;11200334;26;20243;-77
2024/04/22 18:15:52;;;;;;;0.60;0.60;;;9.80;72.30;;;;;;11164252;26;20246;-76
2024/04/22 18:20:59;;;;;;;0.77;0.77;;;9.80;72.30;;;;;;11200128;26;20266;-76
2024/04/22 18:26:03;;;;;;;0.60;0.60;;;9.80;72.30;;;;;;11159007;26;20265;-77
2024/04/22 18:31:07;;;;;;;0.70;0.70;;;9.80;72.00;;;;;;11140543;26;20247;-76
2024/04/22 18:36:14;;;;;;;0.50;0.50;;;9.70;73.70;;;;;;11200460;26;20242;-77
2024/04/22 18:41:18;;;;;;;0.50;0.50;;;9.70;74.10;;;;;;11199924;26;20235;-76
2024/04/22 18:46:22;;;;;;;0.70;0.70;;;9.60;73.90;;;;;;11199522;26;20243;-76
2024/04/22 18:51:29;;;;;;;0.90;0.90;;;9.60;74.80;;;;;;11168125;26;20361;-76
2024/04/22 18:56:33;;;;;;;0.50;0.50;;;9.60;74.90;;;;;;11190270;26;20235;-77
2024/04/22 19:01:37;;;;;;;0.60;0.60;;;9.60;75.30;;;;;;11202229;26;20254;-77
2024/04/22 19:06:44;;;;;;;0.70;0.70;;;9.50;76.60;;;;;;11206302;26;20724;-77
2024/04/22 19:11:48;;;;;;;0.60;0.60;;;9.50;76.60;;;;;;11204796;26;20309;-77
2024/04/22 19:16:52;;;;;;;0.50;0.50;;;9.50;76.90;;;;;;11205805;26;20343;-76
2024/04/22 19:21:59;;;;;;;0.50;0.50;;;9.50;76.10;;;;;;11196346;26;20255;-76
2024/04/22 19:27:03;;;;;;;0.50;0.50;;;9.40;76.90;;;;;;11199476;26;20254;-76
2024/04/22 19:32:08;;;;;;;0.60;0.60;;;9.30;76.70;;;;;;11200083;26;20344;-76
2024/04/22 19:37:14;;;;;;;0.60;0.60;;;9.30;76.40;;;;;;11199833;26;20400;-76
2024/04/22 19:42:18;;;;;;;0.73;0.73;;;9.30;76.80;;;;;;11199891;26;20257;-77
2024/04/22 19:47:22;;;;;;;0.70;0.70;;;9.20;76.60;;;;;;11200425;26;21268;-77
2024/04/22 19:52:29;;;;;;;0.73;0.73;;;9.20;75.60;;;;;;11197545;26;20243;-77
2024/04/22 19:57:34;;;;;;;0.60;0.60;;;9.10;75.70;;;;;;11188979;26;20571;-77
2024/04/22 20:02:38;;;;;;;0.70;0.70;;;9.10;76.20;;;;;;11191743;26;20230;-77
2024/04/22 20:07:44;;;;;;;0.70;0.70;;;9.10;76.70;;;;;;11202184;26;20239;-76
2024/04/22 20:12:49;;;;;;;0.70;0.70;;;9.10;76.10;;;;;;11168855;26;20810;-77
2024/04/22 20:18:03;;;;;;;0.90;0.90;;;9.10;76.90;;;;;;11169581;26;20277;-76
2024/04/22 20:23:10;;;;;;;0.97;0.97;;;9.10;77.50;;;;;;11202567;26;20327;-77
2024/04/22 20:28:14;;;;;;;0.80;0.80;;;9.10;78.10;;;;;;11203669;26;20243;-77
2024/04/22 20:33:18;;;;;;;0.80;0.80;;;9.10;78.00;;;;;;11203970;26;20650;-76
2024/04/22 20:38:25;;;;;;;0.60;0.60;;;9.00;77.80;;;;;;11203418;26;20612;-76
2024/04/22 20:43:31;;;;;;;0.70;0.70;;;9.00;77.90;;;;;;11203671;26;20239;-76
2024/04/22 20:48:38;;;;;;;0.80;0.80;;;9.00;78.70;;;;;;11198773;26;20610;-76
2024/04/22 20:53:44;;;;;;;0.60;0.60;;;8.90;79.20;;;;;;11201709;26;20339;-77
2024/04/22 20:58:48;;;;;;;0.80;0.80;;;8.90;79.80;;;;;;11191055;26;20239;-78
2024/04/22 21:03:52;;;;;;;0.60;0.60;;;8.80;79.70;;;;;;11194844;26;20336;-77
2024/04/22 21:08:59;;;;;;;0.60;0.60;;;8.80;80.70;;;;;;11193421;26;20258;-77
2024/04/22 21:14:04;;;;;;;1.00;1.00;;;8.70;81.00;;;;;;11189715;26;20234;-76
2024/04/22 21:19:08;;;;;;;0.80;0.80;;;8.60;81.30;;;;;;11171200;26;20227;-76
2024/04/22 21:24:15;;;;;;;1.00;1.00;;;8.50;81.40;;;;;;11201725;26;20368;-76
2024/04/22 21:29:19;;;;;;;0.90;0.90;;;8.50;81.90;;;;;;11200788;26;20231;-77
2024/04/22 21:34:23;;;;;;;0.80;0.80;;;8.40;82.40;;;;;;11202991;26;20323;-76
2024/04/22 21:39:30;;;;;;;0.80;0.80;;;8.30;82.30;;;;;;11202823;26;20274;-75
2024/04/22 21:44:34;;;;;;;0.80;0.80;;;8.20;82.40;;;;;;11203043;26;20331;-77
2024/04/22 21:49:38;;;;;;;0.60;0.60;;;8.10;82.50;;;;;;11201813;26;20227;-76
2024/04/22 21:54:45;;;;;;;1.00;1.00;;;8.00;82.90;;;;;;11170736;26;20269;-75
2024/04/22 22:00:26;;;;;;;0.63;0.63;;;7.90;83.30;;;;;;11156528;26;20331;-76
2024/04/22 22:06:08;;;;;;;0.70;0.70;;;7.80;84.00;;;;;;11197578;26;20235;-76
2024/04/22 22:11:15;;;;;;;0.80;0.80;;;7.60;84.40;;;;;;11178906;26;20239;-75
2024/04/22 22:16:19;;;;;;;0.90;0.90;;;7.40;85.10;;;;;;11200962;26;20577;-76
2024/04/22 22:21:23;;;;;;;0.80;0.80;;;7.30;85.50;;;;;;11197306;26;20239;-76
2024/04/22 22:26:30;;;;;;;1.00;1.00;;;;;;;;;;11169561;26;20278;-76
2024/04/22 22:31:34;;;;;;;0.80;0.80;;;;;;;;;;11200081;26;20265;-76
2024/04/22 22:36:38;;;;;;;0.80;0.80;;;7.00;99.90;;;;;;11199654;26;20645;-75
2024/04/22 22:41:46;;;;;;;0.70;0.70;;;7.20;96.70;;;;;;11198598;26;20343;-76
2024/04/22 22:46:50;;;;;;;0.90;0.90;;;7.00;91.20;;;;;;11173806;26;20270;-75
2024/04/22 22:51:53;;;;;;;1.00;1.00;;;6.80;91.40;;;;;;11195858;26;20732;-75
2024/04/22 22:57:01;;;;;;;0.80;0.80;;;6.70;95.80;;;;;;11156140;26;20340;-76
2024/04/22 23:02:05;;;;;;;1.00;1.00;;;6.60;98.40;;;;;;11194015;26;20257;-75
2024/04/22 23:07:09;;;;;;;0.60;0.60;;;6.60;93.70;;;;;;11189858;26;20238;-75
2024/04/22 23:12:16;;;;;;;0.80;0.80;;;6.50;93.30;;;;;;11198659;26;20239;-76
2024/04/22 23:17:20;;;;;;;0.80;0.80;;;6.40;96.40;;;;;;11199494;26;20243;-76
2024/04/22 23:22:24;;;;;;;0.80;0.80;;;6.30;97.30;;;;;;11200011;26;20673;-76
2024/04/22 23:27:30;;;;;;;1.00;1.00;;;6.30;97.80;;;;;;11200435;26;20230;-77
2024/04/22 23:32:34;;;;;;;0.90;0.90;;;6.30;96.40;;;;;;11199092;26;20281;-76
2024/04/22 23:37:38;;;;;;;0.70;0.70;;;6.20;96.60;;;;;;11198606;26;20235;-76
2024/04/22 23:42:45;;;;;;;0.80;0.80;;;6.20;96.50;;;;;;11198632;26;20231;-76
2024/04/22 23:47:49;;;;;;;0.70;0.70;;;6.10;96.40;;;;;;11202011;26;20234;-76
2024/04/22 23:52:53;;;;;;;0.93;0.93;;;6.10;96.50;;;;;;11177886;26;21160;-76
2024/04/22 23:57:59;;;;;;;0.60;0.60;;;6.10;96.50;;;;;;11206158;26;20234;-76
